Terminal Aerodrome Forecast
Issued by NWS

Home | Current Version | Previous Version | Text Only | Print | Product List | Glossary On
Versions: 1 2 3 4 5 6 7 8 9 10 11 12 13 14 15
009
FTUS44 KLIX 261123
TAFGPT
TAF
KGPT 261123Z 2612/2712 17011KT P6SM FEW200
     FM262000 17016G24KT P6SM BKN060
     FM262200 17016G24KT P6SM BKN030
     FM270000 17016G25KT P6SM BKN015
     FM271000 31007KT 3SM -TSRA OVC015CB=

USA.gov is the U.S. government's official web portal to all federal, state and local government web resources and services.